Time;durP1;ratioP1;P1;durP2;ratioP2;P2;SDS_P1;SDS_P2;PMS_P1;PMS_P2;Temp;Humidity;BMP_temperature;BMP_pressure;BME280_temperature;BME280_humidity;BME280_pressure;Samples;Min_cycle;Max_cycle;Signal;HPM_P1;HPM_P2
2021/06/25 00:02:07;;;;;;;35.65;27.88;;;14.10;99.90;;;;;;5072875;28;20185;-80
2021/06/25 00:04:33;;;;;;;36.10;28.90;;;14.10;99.90;;;;;;5073096;28;20186;-80
2021/06/25 00:06:59;;;;;;;35.70;30.58;;;14.00;99.90;;;;;;5040162;28;20579;-83
2021/06/25 00:09:24;;;;;;;41.63;28.85;;;14.00;99.90;;;;;;5052321;28;20290;-80
2021/06/25 00:11:50;;;;;;;47.45;30.58;;;14.00;99.90;;;;;;5071324;28;20178;-80
2021/06/25 00:14:21;;;;;;;40.60;31.33;;;14.10;99.90;;;;;;5054166;28;20561;-81
2021/06/25 00:16:48;;;;;;;39.53;29.08;;;14.10;99.90;;;;;;5044891;28;20244;-82
2021/06/25 00:19:14;;;;;;;47.83;31.08;;;14.10;99.90;;;;;;5072699;28;20192;-80
2021/06/25 00:21:39;;;;;;;40.72;29.35;;;14.20;99.90;;;;;;5062641;28;20197;-81
2021/06/25 00:24:06;;;;;;;42.50;30.40;;;14.10;99.90;;;;;;5073515;28;20171;-80
2021/06/25 00:26:31;;;;;;;41.75;29.88;;;14.00;99.90;;;;;;5071151;28;20175;-80
2021/06/25 00:28:57;;;;;;;44.90;31.05;;;13.90;99.90;;;;;;5072871;28;20220;-80
2021/06/25 00:31:22;;;;;;;43.17;30.67;;;13.80;99.90;;;;;;5056331;28;20225;-80
2021/06/25 00:33:49;;;;;;;38.33;30.48;;;13.90;99.90;;;;;;5052765;28;20604;-81
2021/06/25 00:36:15;;;;;;;41.85;30.75;;;13.90;99.90;;;;;;5070234;28;20211;-80
2021/06/25 00:38:40;;;;;;;46.88;30.45;;;14.00;99.90;;;;;;5071235;28;20173;-80
2021/06/25 00:41:06;;;;;;;49.90;30.45;;;14.00;99.90;;;;;;5060358;28;20612;-80
2021/06/25 00:43:31;;;;;;;36.17;27.48;;;14.00;99.90;;;;;;5052732;28;20634;-79
2021/06/25 00:45:57;;;;;;;39.45;29.42;;;14.00;99.90;;;;;;5034796;28;20163;-80
2021/06/25 00:48:23;;;;;;;41.15;30.70;;;13.90;99.90;;;;;;5041209;28;20203;-81
2021/06/25 00:50:48;;;;;;;38.25;28.73;;;13.90;99.90;;;;;;5062421;28;20172;-81
2021/06/25 00:53:14;;;;;;;34.00;27.25;;;13.90;99.90;;;;;;5053837;28;20160;-80
2021/06/25 00:55:43;;;;;;;28.98;24.58;;;13.80;99.90;;;;;;5056192;28;20168;-80
2021/06/25 00:58:11;;;;;;;35.40;25.63;;;13.80;99.90;;;;;;5038056;28;20168;-81
2021/06/25 01:00:37;;;;;;;31.52;23.80;;;13.70;99.90;;;;;;5055847;28;20168;-81
2021/06/25 01:03:03;;;;;;;31.55;25.23;;;13.60;99.90;;;;;;5054496;28;20575;-80
2021/06/25 01:05:29;;;;;;;37.85;27.60;;;13.70;99.90;;;;;;5055880;28;20179;-81
2021/06/25 01:07:54;;;;;;;30.98;24.02;;;13.80;99.90;;;;;;5055950;28;20191;-80
2021/06/25 01:10:20;;;;;;;44.15;29.00;;;13.70;99.90;;;;;;5042517;28;20615;-80
2021/06/25 01:12:46;;;;;;;41.70;27.83;;;13.70;99.90;;;;;;5075925;28;20498;-81
2021/06/25 01:15:13;;;;;;;31.52;26.08;;;13.70;99.90;;;;;;5075865;28;20155;-81
2021/06/25 01:17:42;;;;;;;33.10;26.02;;;13.60;99.90;;;;;;5073822;28;20285;-81
2021/06/25 01:20:14;;;;;;;38.58;29.75;;;13.50;99.90;;;;;;5073819;28;20662;-80
2021/06/25 01:22:41;;;;;;;47.95;30.52;;;13.50;99.90;;;;;;5075768;28;20174;-81
2021/06/25 01:25:13;;;;;;;44.72;31.13;;;13.50;99.90;;;;;;5075666;28;20221;-80
2021/06/25 01:27:39;;;;;;;34.47;27.52;;;13.50;99.90;;;;;;5075664;28;20167;-81
2021/06/25 01:30:16;;;;;;;39.08;29.70;;;13.50;99.90;;;;;;5056845;28;20685;-81
2021/06/25 01:32:43;;;;;;;42.08;30.75;;;13.50;99.90;;;;;;5035735;28;20218;-81
2021/06/25 01:35:10;;;;;;;37.97;29.80;;;13.50;99.90;;;;;;5039620;28;20168;-80
2021/06/25 01:37:36;;;;;;;44.10;31.70;;;13.50;99.90;;;;;;5075415;28;20205;-80
2021/06/25 01:40:04;;;;;;;44.67;30.52;;;13.50;99.90;;;;;;5074813;28;20166;-84
2021/06/25 01:42:33;;;;;;;42.63;30.20;;;13.50;99.90;;;;;;5055460;28;20175;-80
2021/06/25 01:45:03;;;;;;;41.17;30.00;;;13.50;99.90;;;;;;5073875;28;20169;-80
2021/06/25 01:47:28;;;;;;;44.92;29.08;;;13.40;99.90;;;;;;5057464;28;20169;-81
2021/06/25 01:49:54;;;;;;;50.35;32.75;;;13.40;99.90;;;;;;5062561;28;20183;-81
2021/06/25 01:52:20;;;;;;;47.03;31.88;;;13.40;99.90;;;;;;5070287;28;20182;-80
2021/06/25 01:54:47;;;;;;;44.47;30.83;;;13.40;99.90;;;;;;5038301;28;20167;-80
2021/06/25 01:57:13;;;;;;;42.28;30.92;;;13.40;99.90;;;;;;5054728;28;20199;-80
2021/06/25 01:59:40;;;;;;;44.17;30.63;;;13.30;99.90;;;;;;5055120;28;20201;-81
2021/06/25 02:02:06;;;;;;;44.45;32.03;;;13.40;99.90;;;;;;5055019;28;20163;-80
2021/06/25 02:04:31;;;;;;;41.80;31.38;;;13.50;99.90;;;;;;5061343;28;20187;-80
2021/06/25 02:06:57;;;;;;;63.92;34.10;;;13.60;99.90;;;;;;5074787;28;20549;-80
2021/06/25 02:09:23;;;;;;;48.65;30.35;;;13.60;99.90;;;;;;5059194;28;20574;-80
2021/06/25 02:11:48;;;;;;;49.55;32.05;;;13.60;99.90;;;;;;5054655;28;20171;-80
2021/06/25 02:14:14;;;;;;;44.75;32.53;;;13.60;99.90;;;;;;5056007;28;20266;-81
2021/06/25 02:16:40;;;;;;;42.47;31.40;;;13.60;99.90;;;;;;5054774;28;20659;-81
2021/06/25 02:19:05;;;;;;;45.50;32.03;;;13.70;99.90;;;;;;5060787;28;20167;-80
2021/06/25 02:21:31;;;;;;;45.90;31.35;;;13.80;99.90;;;;;;5055214;28;20637;-81
2021/06/25 02:23:57;;;;;;;41.85;29.90;;;13.90;99.90;;;;;;5058625;28;20271;-80
2021/06/25 02:26:23;;;;;;;37.22;30.67;;;14.10;99.90;;;;;;5061105;28;20178;-80
2021/06/25 02:28:48;;;;;;;42.35;30.52;;;14.10;99.90;;;;;;5045628;28;20178;-80
2021/06/25 02:31:14;;;;;;;42.08;30.38;;;14.10;99.90;;;;;;5036638;28;20542;-80
2021/06/25 02:33:39;;;;;;;40.72;28.52;;;14.20;99.90;;;;;;5054651;28;20625;-80
2021/06/25 02:36:05;;;;;;;45.30;29.55;;;14.20;99.90;;;;;;5053915;28;20244;-81
2021/06/25 02:38:31;;;;;;;37.85;28.33;;;14.10;99.90;;;;;;5060358;28;20615;-81
2021/06/25 02:40:57;;;;;;;46.63;28.55;;;14.10;99.90;;;;;;5062037;28;20163;-80
2021/06/25 02:43:23;;;;;;;33.97;27.05;;;14.10;99.90;;;;;;5054250;28;20163;-80
2021/06/25 02:45:48;;;;;;;36.42;27.02;;;14.00;99.90;;;;;;5054208;28;20174;-80
2021/06/25 02:48:14;;;;;;;36.60;25.38;;;14.00;99.90;;;;;;5054538;28;20164;-80
2021/06/25 02:50:39;;;;;;;40.45;26.80;;;13.90;99.90;;;;;;5053887;28;20172;-81
2021/06/25 02:53:05;;;;;;;44.35;26.15;;;13.90;99.90;;;;;;5053822;28;20178;-80
2021/06/25 02:55:31;;;;;;;31.40;24.90;;;14.00;99.90;;;;;;5053827;28;20608;-80
2021/06/25 02:57:56;;;;;;;33.65;26.38;;;14.10;99.90;;;;;;5036250;28;20209;-80
2021/06/25 03:00:22;;;;;;;32.30;24.90;;;14.20;99.90;;;;;;5073813;28;20170;-81
2021/06/25 03:02:48;;;;;;;27.63;24.17;;;14.30;99.90;;;;;;5072256;28;20246;-80
2021/06/25 03:05:15;;;;;;;31.13;22.65;;;14.40;99.90;;;;;;5073664;28;20210;-80
2021/06/25 03:07:41;;;;;;;37.55;24.40;;;14.40;99.90;;;;;;5070503;28;20171;-80
2021/06/25 03:10:07;;;;;;;24.23;21.63;;;14.40;99.90;;;;;;5071555;28;20221;-81
2021/06/25 03:12:34;;;;;;;30.65;22.88;;;14.50;99.90;;;;;;5055680;28;20167;-80
2021/06/25 03:14:59;;;;;;;29.50;22.85;;;14.50;99.90;;;;;;5073812;28;20162;-80
2021/06/25 03:17:25;;;;;;;30.10;22.08;;;14.50;99.90;;;;;;5073435;28;20201;-80
2021/06/25 03:19:51;;;;;;;29.17;21.48;;;14.50;99.90;;;;;;5040648;28;20175;-81
2021/06/25 03:22:17;;;;;;;32.15;23.38;;;14.40;99.90;;;;;;5072520;28;20519;-80
2021/06/25 03:24:43;;;;;;;26.85;21.65;;;14.40;99.90;;;;;;5068709;28;20178;-81
2021/06/25 03:27:09;;;;;;;30.80;22.83;;;14.40;99.90;;;;;;5035357;28;20172;-81
2021/06/25 03:29:35;;;;;;;28.42;22.08;;;14.30;99.90;;;;;;5052682;28;20171;-80
2021/06/25 03:32:01;;;;;;;44.33;23.83;;;14.40;99.90;;;;;;5054523;28;20243;-80
2021/06/25 03:34:27;;;;;;;28.30;22.67;;;14.40;99.90;;;;;;5035293;28;20241;-80
2021/06/25 03:36:53;;;;;;;34.95;23.17;;;14.50;99.90;;;;;;5053035;28;20651;-80
2021/06/25 03:39:18;;;;;;;35.90;23.20;;;14.60;99.90;;;;;;5053245;28;20245;-81
2021/06/25 03:41:45;;;;;;;26.98;22.50;;;14.70;99.90;;;;;;5057896;28;20193;-80
2021/06/25 03:44:10;;;;;;;29.08;23.33;;;14.70;99.90;;;;;;5036473;28;20159;-81
2021/06/25 03:46:36;;;;;;;31.63;22.80;;;14.80;99.90;;;;;;5052095;28;20171;-80
2021/06/25 03:49:01;;;;;;;36.28;22.60;;;14.90;99.90;;;;;;5059474;28;20175;-80
2021/06/25 03:51:27;;;;;;;30.30;22.90;;;15.00;99.90;;;;;;5073553;28;20155;-80
2021/06/25 03:53:53;;;;;;;27.10;22.27;;;15.00;99.90;;;;;;5053425;28;20615;-80
2021/06/25 03:56:19;;;;;;;27.73;22.58;;;15.00;99.90;;;;;;5055329;28;20195;-80
2021/06/25 03:58:49;;;;;;;27.42;22.52;;;15.00;99.90;;;;;;5069747;28;20172;-80
2021/06/25 04:01:16;;;;;;;35.05;22.83;;;14.90;99.90;;;;;;5035712;28;20170;-80
2021/06/25 04:03:42;;;;;;;35.28;22.38;;;14.90;99.90;;;;;;5047860;28;20167;-80
2021/06/25 04:06:08;;;;;;;30.85;22.40;;;14.80;99.90;;;;;;5072967;28;20171;-81
2021/06/25 04:08:35;;;;;;;30.83;21.95;;;14.80;99.90;;;;;;5070831;28;20189;-80
2021/06/25 04:11:03;;;;;;;34.15;21.83;;;14.70;99.90;;;;;;5053038;28;20179;-80
2021/06/25 04:13:30;;;;;;;34.22;21.98;;;14.80;99.90;;;;;;5035505;28;20552;-80
2021/06/25 04:15:56;;;;;;;30.67;22.42;;;14.70;99.90;;;;;;5052872;28;20167;-81
2021/06/25 04:18:23;;;;;;;35.30;21.70;;;14.70;99.90;;;;;;5034928;28;20171;-80
2021/06/25 04:20:50;;;;;;;31.88;21.83;;;14.60;99.90;;;;;;5072062;28;20166;-80
2021/06/25 04:23:16;;;;;;;26.98;21.63;;;14.70;99.90;;;;;;5043665;28;20282;-80
2021/06/25 04:25:42;;;;;;;35.17;22.83;;;14.70;99.90;;;;;;5053219;28;20159;-79
2021/06/25 04:28:08;;;;;;;33.30;22.17;;;14.80;99.90;;;;;;5053967;28;20194;-81
2021/06/25 04:30:35;;;;;;;31.58;21.55;;;14.90;99.90;;;;;;5070804;28;20194;-80
2021/06/25 04:33:02;;;;;;;27.73;21.27;;;15.00;99.90;;;;;;5068300;28;20168;-80
2021/06/25 04:35:29;;;;;;;26.40;20.50;;;15.10;99.90;;;;;;5056551;28;20255;-80
2021/06/25 04:37:55;;;;;;;24.15;20.15;;;15.40;99.90;;;;;;5056290;28;20664;-80
2021/06/25 04:40:21;;;;;;;33.65;21.05;;;15.50;99.90;;;;;;5068351;28;20229;-81
2021/06/25 04:42:47;;;;;;;51.38;20.75;;;15.60;99.90;;;;;;5070257;28;20170;-80
2021/06/25 04:45:14;;;;;;;22.77;19.35;;;15.60;99.90;;;;;;5038418;28;20198;-80
2021/06/25 04:47:49;;;;;;;23.33;19.27;;;15.70;99.90;;;;;;5038523;28;20587;-80
2021/06/25 04:50:14;;;;;;;24.60;19.55;;;15.70;99.90;;;;;;5066591;28;20174;-80
2021/06/25 04:52:40;;;;;;;31.67;19.33;;;15.80;99.90;;;;;;5052853;28;20263;-80
2021/06/25 04:55:09;;;;;;;26.38;18.58;;;15.80;99.90;;;;;;5055035;28;20345;-79
2021/06/25 04:57:37;;;;;;;29.67;18.52;;;15.80;99.90;;;;;;5038426;28;20195;-80
2021/06/25 05:00:05;;;;;;;36.15;19.05;;;15.80;99.90;;;;;;5038419;28;20175;-80
2021/06/25 05:02:31;;;;;;;28.60;18.45;;;15.90;99.90;;;;;;5057002;28;20630;-80
2021/06/25 05:04:56;;;;;;;25.00;17.63;;;16.00;99.90;;;;;;5056217;28;20190;-80
2021/06/25 05:07:22;;;;;;;26.23;17.90;;;16.10;99.90;;;;;;5054665;28;20175;-80
2021/06/25 05:09:47;;;;;;;24.85;17.13;;;16.20;99.90;;;;;;5062088;28;20615;-80
2021/06/25 05:12:13;;;;;;;24.40;18.10;;;16.20;99.90;;;;;;5057934;28;20165;-79
2021/06/25 05:14:39;;;;;;;19.02;17.02;;;16.30;99.90;;;;;;5055106;28;20674;-79
2021/06/25 05:17:04;;;;;;;21.95;16.85;;;16.30;99.90;;;;;;5055615;28;20238;-79
2021/06/25 05:19:30;;;;;;;17.85;16.05;;;16.30;99.90;;;;;;5056036;28;20172;-79
2021/06/25 05:21:56;;;;;;;26.52;17.73;;;16.30;99.90;;;;;;5038035;28;20167;-80
2021/06/25 05:24:22;;;;;;;22.95;17.35;;;16.30;99.90;;;;;;5054546;28;20170;-79
2021/06/25 05:26:48;;;;;;;22.83;17.70;;;16.40;99.90;;;;;;5075567;28;20556;-80
2021/06/25 05:29:14;;;;;;;22.55;16.27;;;16.50;99.90;;;;;;5075384;28;20159;-79
2021/06/25 05:31:40;;;;;;;21.77;16.45;;;16.60;99.90;;;;;;5074431;28;20163;-79
2021/06/25 05:34:05;;;;;;;22.52;16.58;;;16.80;99.90;;;;;;5060092;28;20167;-80
2021/06/25 05:36:31;;;;;;;16.05;14.40;;;17.00;99.90;;;;;;5055692;28;20199;-80
2021/06/25 05:38:56;;;;;;;17.65;14.60;;;17.00;99.90;;;;;;5055241;28;20205;-79
2021/06/25 05:41:22;;;;;;;21.75;14.38;;;17.00;99.90;;;;;;5070925;28;20174;-79
2021/06/25 05:43:48;;;;;;;27.55;14.48;;;16.90;99.90;;;;;;5074928;28;20170;-80
2021/06/25 05:46:13;;;;;;;14.63;13.13;;;16.80;99.90;;;;;;5075457;28;20163;-79
2021/06/25 05:48:39;;;;;;;17.02;13.75;;;16.80;99.90;;;;;;5074323;28;20175;-79
2021/06/25 05:51:06;;;;;;;19.33;13.80;;;16.80;99.90;;;;;;5043571;28;20171;-79
2021/06/25 05:53:33;;;;;;;18.95;13.82;;;16.80;99.90;;;;;;5064610;28;20201;-79
2021/06/25 05:55:59;;;;;;;16.90;13.60;;;16.80;99.90;;;;;;5075041;28;20163;-79
2021/06/25 05:58:24;;;;;;;19.33;13.35;;;16.80;99.90;;;;;;5074733;28;20631;-79
2021/06/25 06:00:50;;;;;;;17.92;13.02;;;16.70;99.90;;;;;;5063970;28;20176;-79
2021/06/25 06:03:16;;;;;;;16.13;12.82;;;16.70;99.90;;;;;;5036997;28;20171;-79
2021/06/25 06:05:42;;;;;;;17.40;13.25;;;16.70;99.90;;;;;;5037149;28;20256;-79
2021/06/25 06:08:08;;;;;;;13.07;11.80;;;16.80;99.90;;;;;;5054743;28;20206;-79
2021/06/25 06:10:34;;;;;;;12.88;11.73;;;16.90;99.90;;;;;;5063037;28;20203;-77
2021/06/25 06:13:01;;;;;;;17.98;11.85;;;17.00;99.90;;;;;;5067390;28;20177;-79
2021/06/25 06:15:27;;;;;;;14.52;11.50;;;17.10;99.90;;;;;;5036924;28;20160;-79
2021/06/25 06:17:52;;;;;;;17.42;11.98;;;17.20;99.90;;;;;;5054933;28;20195;-78
2021/06/25 06:20:21;;;;;;;16.38;11.10;;;17.30;99.90;;;;;;5042244;28;20502;-77
2021/06/25 06:33:42;;;;;;;15.50;11.77;;;17.20;99.90;;;;;;5074505;28;20181;-81
2021/06/25 06:36:34;;;;;;;19.05;11.05;;;17.30;99.90;;;;;;5074249;28;22067;-80
2021/06/25 06:39:02;;;;;;;14.20;10.68;;;17.40;99.90;;;;;;5056674;28;20527;-80
2021/06/25 06:41:28;;;;;;;11.73;9.73;;;17.50;99.90;;;;;;5044448;28;20677;-80
2021/06/25 06:43:55;;;;;;;13.75;10.38;;;17.60;99.90;;;;;;5036201;28;20194;-79
2021/06/25 06:46:20;;;;;;;12.85;10.27;;;17.60;99.90;;;;;;5054370;28;20171;-79
2021/06/25 06:48:47;;;;;;;14.60;10.80;;;17.70;99.90;;;;;;5053937;28;20159;-79
2021/06/25 06:51:15;;;;;;;12.52;9.90;;;17.80;99.90;;;;;;5062111;28;20178;-78
2021/06/25 06:53:43;;;;;;;19.60;11.32;;;17.80;99.90;;;;;;5074180;28;20155;-79
2021/06/25 06:56:10;;;;;;;13.57;10.45;;;17.80;99.90;;;;;;5074107;28;20189;-79
2021/06/25 06:58:37;;;;;;;14.23;10.27;;;17.80;99.90;;;;;;5055583;28;20257;-81
2021/06/25 07:01:03;;;;;;;14.13;10.18;;;17.90;99.90;;;;;;5053903;28;20262;-81
2021/06/25 07:03:29;;;;;;;17.92;10.35;;;18.00;99.90;;;;;;5053553;28;20609;-78
2021/06/25 07:05:54;;;;;;;13.27;9.82;;;18.00;99.90;;;;;;5053903;28;20164;-79
2021/06/25 07:08:20;;;;;;;14.90;10.13;;;18.10;99.90;;;;;;5052789;28;20392;-79
2021/06/25 07:10:46;;;;;;;13.93;9.63;;;18.30;99.90;;;;;;5070731;28;20162;-79
2021/06/25 07:13:12;;;;;;;15.68;9.50;;;18.60;99.90;;;;;;5071877;28;20170;-79
2021/06/25 07:15:38;;;;;;;13.07;8.70;;;19.00;99.90;;;;;;5073523;28;20187;-79
2021/06/25 07:18:04;;;;;;;8.95;8.02;;;19.50;99.90;;;;;;5072952;28;20241;-79
2021/06/25 07:20:31;;;;;;;9.05;8.02;;;19.80;99.90;;;;;;5073745;28;20170;-79
2021/06/25 07:22:56;;;;;;;11.27;8.50;;;20.00;99.90;;;;;;5071788;28;20166;-79
2021/06/25 07:25:22;;;;;;;10.55;8.40;;;20.30;99.90;;;;;;5072422;28;20193;-79
2021/06/25 07:27:48;;;;;;;16.80;8.07;;;20.70;99.90;;;;;;5067650;28;20167;-79
2021/06/25 07:30:15;;;;;;;7.82;7.22;;;21.20;99.90;;;;;;5053732;28;20504;-79
2021/06/25 07:32:40;;;;;;;10.23;6.88;;;21.80;99.90;;;;;;5064532;28;20169;-79
2021/06/25 07:35:08;;;;;;;10.18;7.15;;;22.20;99.90;;;;;;5072421;28;20557;-79
2021/06/25 07:37:34;;;;;;;8.27;7.30;;;22.20;99.90;;;;;;5051311;28;20656;-79
2021/06/25 07:40:00;;;;;;;16.35;7.18;;;22.20;99.90;;;;;;5052900;28;20171;-79
2021/06/25 07:42:26;;;;;;;7.88;7.18;;;22.30;99.90;;;;;;5062635;28;20170;-80
2021/06/25 07:44:52;;;;;;;11.27;6.68;;;22.80;99.90;;;;;;5053060;28;20164;-79
2021/06/25 07:47:18;;;;;;;10.05;7.15;;;23.30;99.90;;;;;;5052812;28;20654;-79
2021/06/25 07:49:44;;;;;;;9.15;6.90;;;23.50;99.90;;;;;;5053319;28;20160;-79
2021/06/25 07:52:11;;;;;;;6.43;5.88;;;24.40;99.90;;;;;;5054333;28;20167;-79
2021/06/25 07:54:37;;;;;;;8.23;7.00;;;25.20;99.90;;;;;;5071225;28;20171;-79
2021/06/25 07:57:04;;;;;;;7.85;5.90;;;24.70;99.90;;;;;;5072361;28;20205;-80
2021/06/25 07:59:29;;;;;;;6.90;6.20;;;24.30;99.90;;;;;;5051334;28;20167;-79
2021/06/25 08:01:55;;;;;;;7.22;6.63;;;23.70;99.90;;;;;;5065123;28;20185;-80
2021/06/25 08:04:21;;;;;;;7.10;6.50;;;23.30;99.90;;;;;;5063724;28;20537;-80
2021/06/25 08:06:47;;;;;;;6.65;6.15;;;22.60;99.90;;;;;;5026468;28;20241;-81
2021/06/25 08:09:12;;;;;;;11.15;6.47;;;22.40;99.90;;;;;;5056807;28;20191;-81
2021/06/25 08:11:38;;;;;;;7.15;6.65;;;22.10;99.90;;;;;;5067058;28;20183;-79
2021/06/25 08:14:06;;;;;;;10.02;6.70;;;21.90;99.90;;;;;;5076924;28;20170;-81
2021/06/25 08:16:32;;;;;;;8.05;7.25;;;21.70;99.90;;;;;;5075858;28;20198;-80
2021/06/25 08:18:58;;;;;;;8.30;7.13;;;21.40;99.90;;;;;;5051817;28;20195;-80
2021/06/25 08:21:25;;;;;;;8.40;7.50;;;21.40;99.90;;;;;;5039041;28;20593;-80
2021/06/25 08:23:51;;;;;;;10.80;7.53;;;21.40;99.90;;;;;;5055432;28;20179;-79
2021/06/25 08:26:17;;;;;;;8.35;7.20;;;21.40;99.90;;;;;;5056931;28;20246;-81
2021/06/25 08:28:43;;;;;;;8.85;7.88;;;21.00;99.90;;;;;;5056135;28;20207;-80
2021/06/25 08:31:08;;;;;;;9.18;8.10;;;20.50;99.90;;;;;;5056864;28;20509;-80
2021/06/25 08:33:34;;;;;;;8.95;8.05;;;20.10;99.90;;;;;;5056615;28;20172;-79
2021/06/25 08:36:00;;;;;;;9.10;8.23;;;19.80;99.90;;;;;;5055357;28;20623;-80
2021/06/25 08:38:25;;;;;;;8.80;7.82;;;19.70;99.90;;;;;;5046565;28;20214;-79
2021/06/25 08:40:51;;;;;;;9.38;8.55;;;19.60;99.90;;;;;;5054357;28;20201;-79
2021/06/25 08:43:17;;;;;;;16.27;8.93;;;19.60;99.90;;;;;;5055571;28;20171;-79
2021/06/25 08:45:44;;;;;;;8.93;8.00;;;19.60;99.90;;;;;;5056684;28;20166;-80
2021/06/25 08:48:11;;;;;;;9.35;8.43;;;19.60;99.90;;;;;;5054765;28;20258;-82
2021/06/25 08:50:43;;;;;;;9.57;8.68;;;19.70;99.90;;;;;;5052733;28;20171;-79
2021/06/25 08:53:09;;;;;;;9.70;8.73;;;20.20;99.90;;;;;;5050844;28;20631;-80
2021/06/25 08:55:43;;;;;;;9.15;8.40;;;20.40;99.90;;;;;;5056184;28;20167;-80
2021/06/25 08:58:14;;;;;;;13.43;8.48;;;20.40;99.90;;;;;;5037238;28;20198;-81
2021/06/25 09:00:41;;;;;;;7.80;7.20;;;20.30;99.90;;;;;;5053848;28;20171;-79
2021/06/25 09:03:07;;;;;;;10.90;8.50;;;20.60;99.90;;;;;;5054503;28;20171;-81
2021/06/25 09:05:32;;;;;;;9.52;8.30;;;20.70;99.90;;;;;;5055066;28;20248;-80
2021/06/25 09:07:59;;;;;;;9.48;8.23;;;21.30;99.90;;;;;;5054175;28;20686;-79
2021/06/25 09:10:32;;;;;;;9.32;7.20;;;22.30;99.90;;;;;;5053876;28;20175;-79
2021/06/25 09:13:10;;;;;;;8.20;7.50;;;23.10;99.90;;;;;;5054665;28;20200;-80
2021/06/25 09:15:38;;;;;;;8.93;7.82;;;23.70;99.90;;;;;;5053342;28;20535;-79
2021/06/25 09:18:07;;;;;;;15.20;7.82;;;24.30;99.90;;;;;;5055811;28;20223;-79
2021/06/25 09:20:37;;;;;;;8.77;7.20;;;23.80;99.90;;;;;;5052280;28;20171;-81
2021/06/25 09:23:08;;;;;;;12.10;7.32;;;23.30;99.90;;;;;;5055244;28;20631;-79
2021/06/25 09:25:49;;;;;;;12.18;7.05;;;23.10;99.90;;;;;;5055607;28;20164;-79
2021/06/25 09:28:30;;;;;;;14.90;7.88;;;22.90;99.90;;;;;;5070268;28;20168;-79
2021/06/25 09:30:56;;;;;;;10.40;8.50;;;22.50;99.90;;;;;;5047047;28;20175;-80
2021/06/25 09:33:22;;;;;;;8.25;7.57;;;22.10;99.90;;;;;;5064844;28;20174;-79
2021/06/25 09:35:56;;;;;;;8.63;7.60;;;21.90;99.90;;;;;;5067586;28;20612;-79
2021/06/25 09:38:37;;;;;;;8.23;7.38;;;22.00;99.90;;;;;;5054693;28;20209;-79
2021/06/25 09:41:16;;;;;;;10.65;7.45;;;22.40;99.90;;;;;;5054200;28;20563;-79
2021/06/25 09:43:53;;;;;;;8.57;7.68;;;22.70;99.90;;;;;;5055291;28;20183;-79
2021/06/25 09:46:24;;;;;;;11.90;8.20;;;23.30;99.90;;;;;;5054373;28;20179;-79
2021/06/25 09:48:52;;;;;;;9.23;8.27;;;23.50;99.90;;;;;;5068734;28;20171;-79
2021/06/25 09:51:19;;;;;;;8.35;7.75;;;23.90;99.90;;;;;;5069107;28;20167;-78
2021/06/25 09:54:08;;;;;;;9.73;6.75;;;24.70;99.90;;;;;;5054901;28;20186;-79
2021/06/25 09:57:12;;;;;;;11.02;7.30;;;24.90;99.90;;;;;;5040395;28;20199;-79
2021/06/25 10:04:47;;;;;;;10.77;7.07;;;25.80;99.90;;;;;;5054802;28;20290;-80
2021/06/25 10:07:17;;;;;;;8.38;6.70;;;25.70;99.90;;;;;;5054984;28;20175;-79
2021/06/25 10:09:45;;;;;;;7.55;6.75;;;25.60;99.90;;;;;;5053361;28;20635;-79
2021/06/25 10:12:12;;;;;;;8.25;7.10;;;25.50;99.90;;;;;;5054920;28;20175;-79
2021/06/25 10:14:40;;;;;;;9.05;7.20;;;25.20;99.90;;;;;;5054155;28;20225;-79
2021/06/25 10:17:08;;;;;;;8.20;7.40;;;24.70;99.90;;;;;;5078129;28;20226;-78
2021/06/25 10:19:37;;;;;;;7.10;6.32;;;23.90;99.90;;;;;;5052919;28;20683;-80
2021/06/25 10:22:04;;;;;;;8.80;6.70;;;23.40;99.90;;;;;;5053542;28;20632;-79
2021/06/25 10:24:33;;;;;;;8.75;7.03;;;22.70;99.90;;;;;;5053918;28;20556;-79
2021/06/25 10:27:01;;;;;;;9.82;6.82;;;22.10;99.90;;;;;;5054580;28;20694;-79
2021/06/25 10:29:28;;;;;;;6.88;6.22;;;21.80;99.90;;;;;;5055029;28;20627;-80
2021/06/25 10:31:55;;;;;;;7.38;6.63;;;21.60;99.90;;;;;;5074286;28;20171;-79
2021/06/25 10:34:21;;;;;;;7.25;6.55;;;21.50;99.90;;;;;;5055425;28;20549;-79
2021/06/25 10:36:50;;;;;;;9.10;6.20;;;21.30;99.90;;;;;;5060073;28;20233;-79
2021/06/25 10:39:15;;;;;;;7.45;6.18;;;21.40;99.90;;;;;;5053510;28;20185;-79
2021/06/25 10:41:53;;;;;;;12.18;6.82;;;21.60;99.90;;;;;;5052993;28;20250;-79
2021/06/25 10:44:30;;;;;;;8.05;6.22;;;21.70;99.90;;;;;;5053829;28;20685;-79
2021/06/25 10:47:11;;;;;;;6.95;6.35;;;21.70;99.90;;;;;;5059482;28;20163;-79
2021/06/25 10:49:57;;;;;;;7.15;6.55;;;21.80;99.90;;;;;;5053622;28;20179;-79
2021/06/25 10:52:22;;;;;;;18.52;7.50;;;22.00;99.90;;;;;;5052884;28;20255;-78
2021/06/25 10:55:05;;;;;;;13.68;7.80;;;22.10;99.90;;;;;;5034778;28;20266;-78
2021/06/25 10:57:35;;;;;;;10.00;7.22;;;22.10;99.90;;;;;;5053258;28;20234;-79
2021/06/25 11:00:04;;;;;;;11.32;7.03;;;22.10;99.90;;;;;;5053115;28;20581;-78
2021/06/25 11:02:43;;;;;;;10.48;7.10;;;22.20;99.90;;;;;;5053884;28;20172;-78
2021/06/25 11:05:27;;;;;;;9.50;7.35;;;22.00;99.90;;;;;;5052561;28;20651;-77
2021/06/25 11:08:00;;;;;;;8.77;7.97;;;21.80;99.90;;;;;;5054871;28;20186;-78
2021/06/25 11:10:33;;;;;;;8.85;8.13;;;21.60;99.90;;;;;;5056270;28;20693;-77
2021/06/25 11:13:14;;;;;;;8.63;7.78;;;21.50;99.90;;;;;;5052162;28;20172;-80
2021/06/25 11:15:40;;;;;;;8.88;7.97;;;21.40;99.90;;;;;;5054155;28;20167;-78
2021/06/25 11:18:17;;;;;;;14.43;8.38;;;21.40;99.90;;;;;;5052719;28;20226;-78
2021/06/25 11:21:09;;;;;;;8.48;7.80;;;21.40;99.90;;;;;;5052828;28;20655;-79
2021/06/25 11:23:38;;;;;;;7.90;7.30;;;21.20;99.90;;;;;;5018408;28;20190;-80
2021/06/25 11:26:25;;;;;;;12.23;8.13;;;21.30;99.90;;;;;;5060892;28;20171;-78
2021/06/25 11:28:55;;;;;;;8.70;7.78;;;21.40;99.90;;;;;;5037704;28;20175;-79
2021/06/25 11:31:24;;;;;;;7.40;6.70;;;21.40;99.90;;;;;;5068736;28;20167;-80
2021/06/25 11:36:54;;;;;;;10.50;7.10;;;21.30;99.90;;;;;;5052575;28;20191;-78
2021/06/25 11:39:33;;;;;;;7.57;6.88;;;21.30;99.90;;;;;;5052710;28;20658;-81
2021/06/25 11:42:12;;;;;;;9.85;8.93;;;21.10;99.90;;;;;;5051821;28;20171;-79
2021/06/25 11:44:41;;;;;;;8.70;7.85;;;20.90;99.90;;;;;;5068088;28;20615;-79
2021/06/25 11:47:20;;;;;;;8.80;8.00;;;20.80;99.90;;;;;;5070260;28;20174;-78
2021/06/25 11:52:22;;;;;;;8.98;8.07;;;21.40;99.90;;;;;;5052391;28;20572;-79
2021/06/25 11:54:52;;;;;;;9.25;8.40;;;21.60;99.90;;;;;;5052357;28;20208;-79
2021/06/25 11:57:19;;;;;;;9.23;7.82;;;21.90;99.90;;;;;;5057587;28;20214;-79
2021/06/25 11:59:56;;;;;;;10.38;7.50;;;22.00;99.90;;;;;;5054128;28;20175;-79
2021/06/25 12:02:21;;;;;;;9.45;7.90;;;22.00;99.90;;;;;;5051138;28;20167;-79
2021/06/25 12:04:47;;;;;;;8.65;7.38;;;22.20;99.90;;;;;;5051583;28;20508;-79
2021/06/25 12:07:14;;;;;;;10.82;7.35;;;22.20;99.90;;;;;;5052725;28;20194;-80
2021/06/25 12:09:53;;;;;;;8.38;6.45;;;21.90;99.90;;;;;;5051561;28;20691;-80
2021/06/25 12:12:20;;;;;;;7.35;6.75;;;21.80;99.90;;;;;;5051726;28;20167;-79
2021/06/25 12:14:49;;;;;;;8.52;7.00;;;21.70;99.90;;;;;;5053101;28;20160;-87
2021/06/25 12:17:15;;;;;;;9.80;7.22;;;21.60;99.90;;;;;;5058860;28;20772;-80
2021/06/25 12:20:07;;;;;;;9.43;7.90;;;21.70;99.90;;;;;;5048125;28;20179;-79
2021/06/25 12:22:47;;;;;;;9.15;8.05;;;21.90;99.90;;;;;;5066189;28;20167;-79
2021/06/25 12:25:13;;;;;;;10.15;7.68;;;21.80;99.90;;;;;;5054951;28;20175;-79
2021/06/25 12:27:40;;;;;;;8.88;7.45;;;22.10;99.90;;;;;;5054315;28;20200;-79
2021/06/25 12:30:15;;;;;;;10.60;7.63;;;22.50;99.90;;;;;;5051130;28;20175;-79
2021/06/25 12:32:42;;;;;;;8.60;7.03;;;22.40;99.90;;;;;;5052308;28;20175;-80
2021/06/25 12:35:09;;;;;;;7.95;7.20;;;22.50;99.90;;;;;;5054515;28;20179;-79
2021/06/25 12:37:49;;;;;;;11.23;7.13;;;22.70;99.90;;;;;;5052727;28;20199;-79
2021/06/25 12:40:39;;;;;;;10.73;7.07;;;23.00;99.90;;;;;;5050392;28;20183;-79
2021/06/25 12:43:05;;;;;;;8.00;7.10;;;23.10;99.90;;;;;;5052100;28;20167;-79
2021/06/25 12:45:43;;;;;;;8.40;7.47;;;23.30;99.90;;;;;;5051396;28;20186;-79
2021/06/25 12:48:14;;;;;;;9.27;7.15;;;23.30;99.90;;;;;;5052030;28;20179;-79
2021/06/25 12:50:41;;;;;;;10.18;7.35;;;23.40;99.90;;;;;;5053213;28;20191;-79
2021/06/25 12:53:29;;;;;;;9.32;8.05;;;23.70;99.90;;;;;;5045128;28;20250;-79
2021/06/25 12:56:07;;;;;;;9.95;7.18;;;24.00;99.90;;;;;;5038496;28;20240;-78
2021/06/25 12:58:36;;;;;;;8.10;7.32;;;23.90;99.90;;;;;;5073280;28;20175;-81
2021/06/25 13:01:04;;;;;;;8.15;7.47;;;24.00;99.90;;;;;;5073590;28;20186;-80
2021/06/25 13:03:30;;;;;;;8.65;7.40;;;23.90;99.90;;;;;;5038890;28;20166;-80